sensor_id;sensor_type;location;lat;lon;timestamp;P1;durP1;ratioP1;P2;durP2;ratioP2
33403;SDS011;19751;40.274;18.268;2024-01-15T00:01:44;11.15;;;5.50;;
33403;SDS011;19751;40.274;18.268;2024-01-15T00:04:10;8.30;;;3.45;;
33403;SDS011;19751;40.274;18.268;2024-01-15T00:06:36;8.27;;;4.50;;
33403;SDS011;19751;40.274;18.268;2024-01-15T00:09:01;12.05;;;5.85;;
33403;SDS011;19751;40.274;18.268;2024-01-15T00:11:27;12.07;;;6.03;;
33403;SDS011;19751;40.274;18.268;2024-01-15T00:13:53;8.32;;;5.47;;
33403;SDS011;19751;40.274;18.268;2024-01-15T00:16:18;7.18;;;4.28;;
33403;SDS011;19751;40.274;18.268;2024-01-15T00:18:44;7.32;;;3.58;;
33403;SDS011;19751;40.274;18.268;2024-01-15T00:21:09;9.98;;;4.53;;
33403;SDS011;19751;40.274;18.268;2024-01-15T00:23:35;5.25;;;2.88;;
33403;SDS011;19751;40.274;18.268;2024-01-15T00:26:00;6.30;;;3.03;;
33403;SDS011;19751;40.274;18.268;2024-01-15T00:28:26;7.18;;;2.88;;
33403;SDS011;19751;40.274;18.268;2024-01-15T00:30:51;5.97;;;3.17;;
33403;SDS011;19751;40.274;18.268;2024-01-15T00:33:17;6.22;;;2.75;;
33403;SDS011;19751;40.274;18.268;2024-01-15T00:35:42;7.38;;;2.83;;
33403;SDS011;19751;40.274;18.268;2024-01-15T00:38:08;3.58;;;2.40;;
33403;SDS011;19751;40.274;18.268;2024-01-15T00:40:33;5.63;;;2.50;;
33403;SDS011;19751;40.274;18.268;2024-01-15T00:42:59;5.82;;;2.90;;
33403;SDS011;19751;40.274;18.268;2024-01-15T00:45:24;5.60;;;2.55;;
33403;SDS011;19751;40.274;18.268;2024-01-15T00:47:50;6.22;;;2.72;;
33403;SDS011;19751;40.274;18.268;2024-01-15T00:50:15;6.25;;;2.50;;
33403;SDS011;19751;40.274;18.268;2024-01-15T00:52:42;4.65;;;2.97;;
33403;SDS011;19751;40.274;18.268;2024-01-15T00:55:07;3.05;;;2.03;;
33403;SDS011;19751;40.274;18.268;2024-01-15T00:57:33;4.95;;;2.20;;
33403;SDS011;19751;40.274;18.268;2024-01-15T00:59:59;7.32;;;2.75;;
33403;SDS011;19751;40.274;18.268;2024-01-15T01:02:24;6.22;;;2.58;;
33403;SDS011;19751;40.274;18.268;2024-01-15T01:04:50;4.75;;;2.83;;
33403;SDS011;19751;40.274;18.268;2024-01-15T01:07:15;6.78;;;3.20;;
33403;SDS011;19751;40.274;18.268;2024-01-15T01:09:41;4.78;;;2.70;;
33403;SDS011;19751;40.274;18.268;2024-01-15T01:12:06;5.18;;;2.97;;
33403;SDS011;19751;40.274;18.268;2024-01-15T01:14:31;9.05;;;4.18;;
33403;SDS011;19751;40.274;18.268;2024-01-15T01:16:57;11.05;;;4.32;;
33403;SDS011;19751;40.274;18.268;2024-01-15T01:19:23;8.77;;;4.00;;
33403;SDS011;19751;40.274;18.268;2024-01-15T01:21:50;8.18;;;4.15;;
33403;SDS011;19751;40.274;18.268;2024-01-15T01:24:16;15.32;;;7.30;;
33403;SDS011;19751;40.274;18.268;2024-01-15T01:26:41;21.73;;;9.73;;
33403;SDS011;19751;40.274;18.268;2024-01-15T01:29:07;19.65;;;7.35;;
33403;SDS011;19751;40.274;18.268;2024-01-15T01:31:33;17.63;;;7.47;;
33403;SDS011;19751;40.274;18.268;2024-01-15T01:33:58;17.95;;;7.05;;
33403;SDS011;19751;40.274;18.268;2024-01-15T01:36:24;15.40;;;6.93;;
33403;SDS011;19751;40.274;18.268;2024-01-15T01:38:49;18.92;;;7.00;;
33403;SDS011;19751;40.274;18.268;2024-01-15T01:41:15;31.45;;;13.27;;
33403;SDS011;19751;40.274;18.268;2024-01-15T01:43:40;18.52;;;8.27;;
33403;SDS011;19751;40.274;18.268;2024-01-15T01:46:06;22.38;;;11.48;;
33403;SDS011;19751;40.274;18.268;2024-01-15T01:48:32;22.60;;;11.05;;
33403;SDS011;19751;40.274;18.268;2024-01-15T01:50:59;18.35;;;9.55;;
33403;SDS011;19751;40.274;18.268;2024-01-15T01:53:26;12.02;;;6.53;;
33403;SDS011;19751;40.274;18.268;2024-01-15T01:55:53;22.90;;;11.32;;
33403;SDS011;19751;40.274;18.268;2024-01-15T01:58:19;32.70;;;14.13;;
33403;SDS011;19751;40.274;18.268;2024-01-15T02:00:45;17.02;;;8.73;;
33403;SDS011;19751;40.274;18.268;2024-01-15T02:03:12;17.98;;;8.07;;
33403;SDS011;19751;40.274;18.268;2024-01-15T02:05:38;24.55;;;10.00;;
33403;SDS011;19751;40.274;18.268;2024-01-15T02:08:05;11.95;;;7.45;;
33403;SDS011;19751;40.274;18.268;2024-01-15T02:10:30;6.20;;;3.65;;
33403;SDS011;19751;40.274;18.268;2024-01-15T02:12:56;10.70;;;6.70;;
33403;SDS011;19751;40.274;18.268;2024-01-15T02:15:21;15.95;;;5.03;;
33403;SDS011;19751;40.274;18.268;2024-01-15T02:17:56;4.80;;;2.60;;
33403;SDS011;19751;40.274;18.268;2024-01-15T02:20:25;4.70;;;2.08;;
33403;SDS011;19751;40.274;18.268;2024-01-15T02:22:51;3.72;;;1.80;;
33403;SDS011;19751;40.274;18.268;2024-01-15T02:25:17;4.38;;;1.60;;
33403;SDS011;19751;40.274;18.268;2024-01-15T02:27:43;3.47;;;1.77;;
33403;SDS011;19751;40.274;18.268;2024-01-15T02:30:13;4.47;;;1.70;;
33403;SDS011;19751;40.274;18.268;2024-01-15T02:32:39;6.95;;;1.73;;
33403;SDS011;19751;40.274;18.268;2024-01-15T02:35:04;6.00;;;1.52;;
33403;SDS011;19751;40.274;18.268;2024-01-15T02:37:30;8.85;;;2.20;;
33403;SDS011;19751;40.274;18.268;2024-01-15T02:39:55;4.47;;;1.38;;
33403;SDS011;19751;40.274;18.268;2024-01-15T02:42:21;2.70;;;1.00;;
33403;SDS011;19751;40.274;18.268;2024-01-15T02:44:46;3.97;;;1.63;;
33403;SDS011;19751;40.274;18.268;2024-01-15T02:47:13;5.05;;;1.77;;
33403;SDS011;19751;40.274;18.268;2024-01-15T02:49:39;5.63;;;2.30;;
33403;SDS011;19751;40.274;18.268;2024-01-15T02:52:04;6.93;;;1.80;;
33403;SDS011;19751;40.274;18.268;2024-01-15T02:54:30;5.85;;;1.75;;
33403;SDS011;19751;40.274;18.268;2024-01-15T02:56:56;8.13;;;2.03;;
33403;SDS011;19751;40.274;18.268;2024-01-15T02:59:21;7.18;;;2.13;;
33403;SDS011;19751;40.274;18.268;2024-01-15T03:01:47;6.93;;;2.33;;
33403;SDS011;19751;40.274;18.268;2024-01-15T03:04:12;3.33;;;1.58;;
33403;SDS011;19751;40.274;18.268;2024-01-15T03:06:38;2.63;;;1.50;;
33403;SDS011;19751;40.274;18.268;2024-01-15T03:09:03;4.68;;;2.05;;
33403;SDS011;19751;40.274;18.268;2024-01-15T03:11:29;4.47;;;2.15;;
33403;SDS011;19751;40.274;18.268;2024-01-15T03:13:54;3.22;;;1.23;;
33403;SDS011;19751;40.274;18.268;2024-01-15T03:16:20;2.25;;;1.17;;
33403;SDS011;19751;40.274;18.268;2024-01-15T03:18:45;2.60;;;1.25;;
33403;SDS011;19751;40.274;18.268;2024-01-15T03:21:11;4.25;;;1.30;;
33403;SDS011;19751;40.274;18.268;2024-01-15T03:23:36;2.42;;;1.30;;
33403;SDS011;19751;40.274;18.268;2024-01-15T03:26:03;2.35;;;1.38;;
33403;SDS011;19751;40.274;18.268;2024-01-15T03:28:28;1.88;;;1.13;;
33403;SDS011;19751;40.274;18.268;2024-01-15T03:30:55;2.38;;;1.42;;
33403;SDS011;19751;40.274;18.268;2024-01-15T03:33:21;5.80;;;1.98;;
33403;SDS011;19751;40.274;18.268;2024-01-15T03:35:46;3.45;;;1.77;;
33403;SDS011;19751;40.274;18.268;2024-01-15T03:38:12;6.13;;;1.83;;
33403;SDS011;19751;40.274;18.268;2024-01-15T03:40:37;6.05;;;1.67;;
33403;SDS011;19751;40.274;18.268;2024-01-15T03:43:03;5.05;;;1.60;;
33403;SDS011;19751;40.274;18.268;2024-01-15T03:45:28;3.95;;;1.35;;
33403;SDS011;19751;40.274;18.268;2024-01-15T03:47:54;4.65;;;1.38;;
33403;SDS011;19751;40.274;18.268;2024-01-15T03:50:19;2.67;;;1.38;;
33403;SDS011;19751;40.274;18.268;2024-01-15T03:52:45;3.30;;;1.38;;
33403;SDS011;19751;40.274;18.268;2024-01-15T03:55:11;3.75;;;1.45;;
33403;SDS011;19751;40.274;18.268;2024-01-15T03:57:36;10.20;;;3.97;;
33403;SDS011;19751;40.274;18.268;2024-01-15T04:00:02;4.22;;;2.63;;
33403;SDS011;19751;40.274;18.268;2024-01-15T04:02:28;5.45;;;1.60;;
33403;SDS011;19751;40.274;18.268;2024-01-15T04:04:54;7.80;;;1.70;;
33403;SDS011;19751;40.274;18.268;2024-01-15T04:07:19;5.80;;;1.10;;
33403;SDS011;19751;40.274;18.268;2024-01-15T04:09:45;2.42;;;1.50;;
33403;SDS011;19751;40.274;18.268;2024-01-15T04:12:10;5.32;;;1.42;;
33403;SDS011;19751;40.274;18.268;2024-01-15T04:14:36;5.40;;;1.35;;
33403;SDS011;19751;40.274;18.268;2024-01-15T04:17:01;5.22;;;2.17;;
33403;SDS011;19751;40.274;18.268;2024-01-15T04:19:27;3.08;;;1.52;;
33403;SDS011;19751;40.274;18.268;2024-01-15T04:21:52;6.38;;;1.70;;
33403;SDS011;19751;40.274;18.268;2024-01-15T04:24:18;5.93;;;1.40;;
33403;SDS011;19751;40.274;18.268;2024-01-15T04:26:43;6.47;;;1.73;;
33403;SDS011;19751;40.274;18.268;2024-01-15T04:29:09;5.47;;;1.77;;
33403;SDS011;19751;40.274;18.268;2024-01-15T04:31:34;4.47;;;1.50;;
33403;SDS011;19751;40.274;18.268;2024-01-15T04:34:00;7.40;;;2.15;;
33403;SDS011;19751;40.274;18.268;2024-01-15T04:36:25;3.70;;;1.55;;
33403;SDS011;19751;40.274;18.268;2024-01-15T04:38:51;7.60;;;2.08;;
33403;SDS011;19751;40.274;18.268;2024-01-15T04:41:16;2.95;;;1.40;;
33403;SDS011;19751;40.274;18.268;2024-01-15T04:43:42;5.65;;;1.83;;
33403;SDS011;19751;40.274;18.268;2024-01-15T04:46:07;2.45;;;1.45;;
33403;SDS011;19751;40.274;18.268;2024-01-15T04:48:33;1.92;;;1.13;;
33403;SDS011;19751;40.274;18.268;2024-01-15T04:50:59;2.10;;;1.20;;
33403;SDS011;19751;40.274;18.268;2024-01-15T04:53:25;5.70;;;1.70;;
33403;SDS011;19751;40.274;18.268;2024-01-15T04:55:50;5.93;;;3.67;;
33403;SDS011;19751;40.274;18.268;2024-01-15T04:58:16;3.25;;;1.65;;
33403;SDS011;19751;40.274;18.268;2024-01-15T05:00:41;4.05;;;1.67;;
33403;SDS011;19751;40.274;18.268;2024-01-15T05:03:07;6.53;;;2.10;;
33403;SDS011;19751;40.274;18.268;2024-01-15T05:05:32;1.65;;;1.23;;
33403;SDS011;19751;40.274;18.268;2024-01-15T05:07:58;5.72;;;2.80;;
33403;SDS011;19751;40.274;18.268;2024-01-15T05:10:23;2.88;;;1.33;;
33403;SDS011;19751;40.274;18.268;2024-01-15T05:12:49;3.00;;;1.70;;
33403;SDS011;19751;40.274;18.268;2024-01-15T05:15:14;2.33;;;1.33;;
33403;SDS011;19751;40.274;18.268;2024-01-15T05:17:40;6.28;;;1.42;;
33403;SDS011;19751;40.274;18.268;2024-01-15T05:20:05;7.63;;;2.13;;
33403;SDS011;19751;40.274;18.268;2024-01-15T05:22:32;3.75;;;2.05;;
33403;SDS011;19751;40.274;18.268;2024-01-15T05:24:57;2.83;;;1.20;;
33403;SDS011;19751;40.274;18.268;2024-01-15T05:27:23;3.38;;;1.52;;
33403;SDS011;19751;40.274;18.268;2024-01-15T05:29:49;4.85;;;1.35;;
33403;SDS011;19751;40.274;18.268;2024-01-15T05:32:14;3.80;;;1.83;;
33403;SDS011;19751;40.274;18.268;2024-01-15T05:34:40;4.40;;;3.00;;
33403;SDS011;19751;40.274;18.268;2024-01-15T05:37:05;4.18;;;1.60;;
33403;SDS011;19751;40.274;18.268;2024-01-15T05:39:31;3.45;;;1.83;;
33403;SDS011;19751;40.274;18.268;2024-01-15T05:41:56;3.95;;;1.90;;
33403;SDS011;19751;40.274;18.268;2024-01-15T05:44:23;2.22;;;1.60;;
33403;SDS011;19751;40.274;18.268;2024-01-15T05:46:48;7.82;;;1.70;;
33403;SDS011;19751;40.274;18.268;2024-01-15T05:49:14;5.18;;;1.90;;
33403;SDS011;19751;40.274;18.268;2024-01-15T05:51:39;3.53;;;2.00;;
33403;SDS011;19751;40.274;18.268;2024-01-15T05:54:05;4.70;;;2.63;;
33403;SDS011;19751;40.274;18.268;2024-01-15T05:56:31;8.88;;;2.25;;
33403;SDS011;19751;40.274;18.268;2024-01-15T05:58:56;5.05;;;2.03;;
33403;SDS011;19751;40.274;18.268;2024-01-15T06:01:22;3.42;;;1.50;;
33403;SDS011;19751;40.274;18.268;2024-01-15T06:03:47;10.18;;;3.25;;
33403;SDS011;19751;40.274;18.268;2024-01-15T06:06:13;2.33;;;1.30;;
33403;SDS011;19751;40.274;18.268;2024-01-15T06:08:38;3.20;;;1.98;;
33403;SDS011;19751;40.274;18.268;2024-01-15T06:11:04;3.17;;;1.30;;
33403;SDS011;19751;40.274;18.268;2024-01-15T06:13:29;4.20;;;1.42;;
33403;SDS011;19751;40.274;18.268;2024-01-15T06:15:55;6.40;;;1.75;;
33403;SDS011;19751;40.274;18.268;2024-01-15T06:18:20;6.43;;;1.30;;
33403;SDS011;19751;40.274;18.268;2024-01-15T06:20:46;7.70;;;2.42;;
33403;SDS011;19751;40.274;18.268;2024-01-15T06:23:11;7.82;;;4.97;;
33403;SDS011;19751;40.274;18.268;2024-01-15T06:25:37;8.88;;;6.25;;
33403;SDS011;19751;40.274;18.268;2024-01-15T06:28:02;8.82;;;5.15;;
33403;SDS011;19751;40.274;18.268;2024-01-15T06:30:29;9.20;;;4.32;;
33403;SDS011;19751;40.274;18.268;2024-01-15T06:32:55;9.63;;;3.35;;
33403;SDS011;19751;40.274;18.268;2024-01-15T06:35:20;19.90;;;4.05;;
33403;SDS011;19751;40.274;18.268;2024-01-15T06:37:46;5.38;;;2.17;;
33403;SDS011;19751;40.274;18.268;2024-01-15T06:40:11;6.57;;;1.90;;
33403;SDS011;19751;40.274;18.268;2024-01-15T06:42:37;8.35;;;1.80;;
33403;SDS011;19751;40.274;18.268;2024-01-15T06:45:03;7.55;;;1.77;;
33403;SDS011;19751;40.274;18.268;2024-01-15T06:47:28;2.05;;;1.42;;
33403;SDS011;19751;40.274;18.268;2024-01-15T06:49:54;6.85;;;1.92;;
33403;SDS011;19751;40.274;18.268;2024-01-15T06:52:20;5.32;;;1.73;;
33403;SDS011;19751;40.274;18.268;2024-01-15T06:54:45;4.65;;;2.05;;
33403;SDS011;19751;40.274;18.268;2024-01-15T06:57:11;4.95;;;1.40;;
33403;SDS011;19751;40.274;18.268;2024-01-15T06:59:36;2.58;;;1.38;;
33403;SDS011;19751;40.274;18.268;2024-01-15T07:02:01;3.92;;;1.63;;
33403;SDS011;19751;40.274;18.268;2024-01-15T07:04:27;7.68;;;1.40;;
33403;SDS011;19751;40.274;18.268;2024-01-15T07:06:53;8.68;;;1.92;;
33403;SDS011;19751;40.274;18.268;2024-01-15T07:09:18;7.75;;;1.45;;
33403;SDS011;19751;40.274;18.268;2024-01-15T07:11:45;7.47;;;1.30;;
33403;SDS011;19751;40.274;18.268;2024-01-15T07:14:11;3.05;;;1.48;;
33403;SDS011;19751;40.274;18.268;2024-01-15T07:16:37;1.73;;;1.15;;
33403;SDS011;19751;40.274;18.268;2024-01-15T07:19:03;7.35;;;2.30;;
33403;SDS011;19751;40.274;18.268;2024-01-15T07:21:28;5.20;;;1.95;;
33403;SDS011;19751;40.274;18.268;2024-01-15T07:23:55;6.13;;;1.92;;
33403;SDS011;19751;40.274;18.268;2024-01-15T07:26:21;7.28;;;2.63;;
33403;SDS011;19751;40.274;18.268;2024-01-15T07:28:46;8.02;;;2.83;;
33403;SDS011;19751;40.274;18.268;2024-01-15T07:31:12;10.48;;;3.08;;
33403;SDS011;19751;40.274;18.268;2024-01-15T07:33:37;12.18;;;4.78;;
33403;SDS011;19751;40.274;18.268;2024-01-15T07:36:03;11.65;;;4.82;;
33403;SDS011;19751;40.274;18.268;2024-01-15T07:38:29;10.52;;;4.75;;
33403;SDS011;19751;40.274;18.268;2024-01-15T07:40:54;12.00;;;4.07;;
33403;SDS011;19751;40.274;18.268;2024-01-15T07:43:20;16.27;;;6.38;;
33403;SDS011;19751;40.274;18.268;2024-01-15T07:45:45;14.43;;;5.20;;
33403;SDS011;19751;40.274;18.268;2024-01-15T07:48:11;17.52;;;4.80;;
33403;SDS011;19751;40.274;18.268;2024-01-15T07:50:37;17.50;;;3.88;;
33403;SDS011;19751;40.274;18.268;2024-01-15T07:53:02;14.48;;;4.32;;
33403;SDS011;19751;40.274;18.268;2024-01-15T07:55:29;9.88;;;3.25;;
33403;SDS011;19751;40.274;18.268;2024-01-15T07:57:54;8.82;;;2.55;;
33403;SDS011;19751;40.274;18.268;2024-01-15T08:00:23;8.57;;;1.90;;
33403;SDS011;19751;40.274;18.268;2024-01-15T08:02:49;8.13;;;2.95;;
33403;SDS011;19751;40.274;18.268;2024-01-15T08:05:16;8.55;;;2.20;;
33403;SDS011;19751;40.274;18.268;2024-01-15T08:07:42;11.65;;;2.33;;
33403;SDS011;19751;40.274;18.268;2024-01-15T08:10:07;7.70;;;2.47;;
33403;SDS011;19751;40.274;18.268;2024-01-15T08:12:33;10.95;;;2.05;;
33403;SDS011;19751;40.274;18.268;2024-01-15T08:14:58;11.20;;;2.47;;
33403;SDS011;19751;40.274;18.268;2024-01-15T08:17:24;9.77;;;3.00;;
33403;SDS011;19751;40.274;18.268;2024-01-15T08:19:53;10.60;;;2.92;;
33403;SDS011;19751;40.274;18.268;2024-01-15T08:22:20;5.95;;;2.20;;
33403;SDS011;19751;40.274;18.268;2024-01-15T08:24:45;11.45;;;3.25;;
33403;SDS011;19751;40.274;18.268;2024-01-15T08:27:11;8.27;;;3.22;;
33403;SDS011;19751;40.274;18.268;2024-01-15T08:29:36;12.35;;;2.92;;
33403;SDS011;19751;40.274;18.268;2024-01-15T08:32:02;15.07;;;3.80;;
33403;SDS011;19751;40.274;18.268;2024-01-15T08:34:27;11.75;;;2.95;;
33403;SDS011;19751;40.274;18.268;2024-01-15T08:36:53;12.75;;;2.90;;
33403;SDS011;19751;40.274;18.268;2024-01-15T08:39:19;6.78;;;2.70;;
33403;SDS011;19751;40.274;18.268;2024-01-15T08:41:44;7.28;;;3.90;;
33403;SDS011;19751;40.274;18.268;2024-01-15T08:44:11;21.02;;;6.72;;
33403;SDS011;19751;40.274;18.268;2024-01-15T08:46:37;27.90;;;14.35;;
33403;SDS011;19751;40.274;18.268;2024-01-15T08:49:03;34.15;;;16.50;;
33403;SDS011;19751;40.274;18.268;2024-01-15T08:51:28;18.20;;;9.18;;
33403;SDS011;19751;40.274;18.268;2024-01-15T08:53:54;14.25;;;4.22;;
33403;SDS011;19751;40.274;18.268;2024-01-15T08:56:21;8.63;;;3.45;;
33403;SDS011;19751;40.274;18.268;2024-01-15T08:58:46;11.82;;;2.90;;
33403;SDS011;19751;40.274;18.268;2024-01-15T09:01:12;10.07;;;2.63;;
33403;SDS011;19751;40.274;18.268;2024-01-15T09:03:37;12.90;;;2.88;;
33403;SDS011;19751;40.274;18.268;2024-01-15T09:06:03;8.23;;;2.40;;
33403;SDS011;19751;40.274;18.268;2024-01-15T09:08:29;6.57;;;2.85;;
33403;SDS011;19751;40.274;18.268;2024-01-15T09:10:54;15.57;;;4.20;;
33403;SDS011;19751;40.274;18.268;2024-01-15T09:13:20;9.73;;;3.42;;
33403;SDS011;19751;40.274;18.268;2024-01-15T09:15:45;14.55;;;4.07;;
33403;SDS011;19751;40.274;18.268;2024-01-15T09:18:11;13.38;;;3.72;;
33403;SDS011;19751;40.274;18.268;2024-01-15T09:20:36;19.70;;;6.35;;
33403;SDS011;19751;40.274;18.268;2024-01-15T09:23:03;7.25;;;3.88;;
33403;SDS011;19751;40.274;18.268;2024-01-15T09:25:29;11.73;;;5.70;;
33403;SDS011;19751;40.274;18.268;2024-01-15T09:27:54;14.05;;;4.82;;
33403;SDS011;19751;40.274;18.268;2024-01-15T09:30:20;6.97;;;2.67;;
33403;SDS011;19751;40.274;18.268;2024-01-15T09:32:45;10.88;;;4.05;;
33403;SDS011;19751;40.274;18.268;2024-01-15T09:35:11;7.15;;;3.42;;
33403;SDS011;19751;40.274;18.268;2024-01-15T09:37:36;12.00;;;4.40;;
33403;SDS011;19751;40.274;18.268;2024-01-15T09:40:02;12.70;;;5.15;;
33403;SDS011;19751;40.274;18.268;2024-01-15T09:42:32;12.70;;;3.60;;
33403;SDS011;19751;40.274;18.268;2024-01-15T09:44:58;9.57;;;3.70;;
33403;SDS011;19751;40.274;18.268;2024-01-15T09:47:24;10.65;;;4.50;;
33403;SDS011;19751;40.274;18.268;2024-01-15T09:49:50;13.75;;;4.43;;
33403;SDS011;19751;40.274;18.268;2024-01-15T09:52:16;10.60;;;3.20;;
33403;SDS011;19751;40.274;18.268;2024-01-15T09:54:44;10.93;;;2.90;;
33403;SDS011;19751;40.274;18.268;2024-01-15T09:57:11;6.93;;;2.85;;
33403;SDS011;19751;40.274;18.268;2024-01-15T09:59:36;12.95;;;4.00;;
33403;SDS011;19751;40.274;18.268;2024-01-15T10:02:03;9.93;;;3.55;;
33403;SDS011;19751;40.274;18.268;2024-01-15T10:04:31;13.85;;;4.10;;
33403;SDS011;19751;40.274;18.268;2024-01-15T10:06:56;7.22;;;3.38;;
33403;SDS011;19751;40.274;18.268;2024-01-15T10:09:25;11.23;;;3.63;;
33403;SDS011;19751;40.274;18.268;2024-01-15T10:11:53;8.02;;;3.22;;
33403;SDS011;19751;40.274;18.268;2024-01-15T10:14:19;14.57;;;4.47;;
33403;SDS011;19751;40.274;18.268;2024-01-15T10:16:44;9.02;;;2.55;;
33403;SDS011;19751;40.274;18.268;2024-01-15T10:19:10;16.23;;;3.85;;
33403;SDS011;19751;40.274;18.268;2024-01-15T10:21:35;11.45;;;2.97;;
33403;SDS011;19751;40.274;18.268;2024-01-15T10:24:02;8.95;;;3.92;;
33403;SDS011;19751;40.274;18.268;2024-01-15T10:26:29;9.75;;;4.50;;
33403;SDS011;19751;40.274;18.268;2024-01-15T10:28:55;13.90;;;5.63;;
33403;SDS011;19751;40.274;18.268;2024-01-15T10:31:21;18.10;;;7.22;;
33403;SDS011;19751;40.274;18.268;2024-01-15T10:33:49;24.67;;;12.07;;
33403;SDS011;19751;40.274;18.268;2024-01-15T10:36:15;10.50;;;3.65;;
33403;SDS011;19751;40.274;18.268;2024-01-15T10:38:42;11.05;;;3.53;;
33403;SDS011;19751;40.274;18.268;2024-01-15T10:41:11;5.88;;;2.97;;
33403;SDS011;19751;40.274;18.268;2024-01-15T10:43:37;15.25;;;5.78;;
33403;SDS011;19751;40.274;18.268;2024-01-15T10:46:03;11.00;;;4.25;;
33403;SDS011;19751;40.274;18.268;2024-01-15T10:48:29;17.77;;;5.25;;
33403;SDS011;19751;40.274;18.268;2024-01-15T10:50:56;6.50;;;2.60;;
33403;SDS011;19751;40.274;18.268;2024-01-15T10:53:22;19.65;;;6.50;;
33403;SDS011;19751;40.274;18.268;2024-01-15T10:55:48;9.02;;;4.75;;
33403;SDS011;19751;40.274;18.268;2024-01-15T10:58:16;12.48;;;3.25;;
33403;SDS011;19751;40.274;18.268;2024-01-15T11:00:43;11.88;;;4.88;;
33403;SDS011;19751;40.274;18.268;2024-01-15T11:03:09;16.75;;;4.32;;
33403;SDS011;19751;40.274;18.268;2024-01-15T11:05:38;7.82;;;3.03;;
33403;SDS011;19751;40.274;18.268;2024-01-15T11:08:06;12.63;;;4.63;;
33403;SDS011;19751;40.274;18.268;2024-01-15T11:10:45;11.27;;;2.92;;
33403;SDS011;19751;40.274;18.268;2024-01-15T11:13:21;8.93;;;3.08;;
33403;SDS011;19751;40.274;18.268;2024-01-15T11:16:03;19.40;;;8.38;;
33403;SDS011;19751;40.274;18.268;2024-01-15T11:18:40;10.98;;;4.57;;
33403;SDS011;19751;40.274;18.268;2024-01-15T11:34:09;21.52;;;10.07;;
33403;SDS011;19751;40.274;18.268;2024-01-15T11:39:44;9.63;;;3.70;;
33403;SDS011;19751;40.274;18.268;2024-01-15T11:42:07;12.45;;;4.22;;
33403;SDS011;19751;40.274;18.268;2024-01-15T11:44:37;8.02;;;5.05;;
33403;SDS011;19751;40.274;18.268;2024-01-15T11:47:06;11.63;;;5.22;;
33403;SDS011;19751;40.274;18.268;2024-01-15T11:52:20;14.95;;;6.63;;
33403;SDS011;19751;40.274;18.268;2024-01-15T11:54:55;15.18;;;9.32;;
33403;SDS011;19751;40.274;18.268;2024-01-15T12:00:11;10.77;;;6.97;;
33403;SDS011;19751;40.274;18.268;2024-01-15T12:02:38;13.65;;;6.47;;
33403;SDS011;19751;40.274;18.268;2024-01-15T12:05:09;5.97;;;3.25;;
33403;SDS011;19751;40.274;18.268;2024-01-15T12:07:38;6.60;;;3.08;;
33403;SDS011;19751;40.274;18.268;2024-01-15T12:10:14;14.07;;;3.88;;
33403;SDS011;19751;40.274;18.268;2024-01-15T12:12:44;7.82;;;3.15;;
33403;SDS011;19751;40.274;18.268;2024-01-15T12:15:22;10.93;;;4.88;;
33403;SDS011;19751;40.274;18.268;2024-01-15T12:17:47;6.43;;;3.05;;
33403;SDS011;19751;40.274;18.268;2024-01-15T12:20:13;6.38;;;1.60;;
33403;SDS011;19751;40.274;18.268;2024-01-15T12:22:41;11.05;;;6.93;;
33403;SDS011;19751;40.274;18.268;2024-01-15T12:25:06;7.93;;;4.10;;
33403;SDS011;19751;40.274;18.268;2024-01-15T12:27:32;6.30;;;3.85;;
33403;SDS011;19751;40.274;18.268;2024-01-15T12:29:58;8.63;;;5.75;;
33403;SDS011;19751;40.274;18.268;2024-01-15T12:32:24;9.35;;;4.32;;
33403;SDS011;19751;40.274;18.268;2024-01-15T12:34:50;13.30;;;5.72;;
33403;SDS011;19751;40.274;18.268;2024-01-15T12:37:19;8.57;;;4.68;;
33403;SDS011;19751;40.274;18.268;2024-01-15T12:39:45;10.55;;;3.22;;
33403;SDS011;19751;40.274;18.268;2024-01-15T12:42:11;8.68;;;4.07;;
33403;SDS011;19751;40.274;18.268;2024-01-15T12:44:39;20.23;;;5.63;;
33403;SDS011;19751;40.274;18.268;2024-01-15T12:47:04;14.63;;;9.18;;
33403;SDS011;19751;40.274;18.268;2024-01-15T12:49:30;9.60;;;4.60;;
33403;SDS011;19751;40.274;18.268;2024-01-15T12:51:56;10.23;;;4.07;;
33403;SDS011;19751;40.274;18.268;2024-01-15T12:54:23;13.07;;;3.47;;
33403;SDS011;19751;40.274;18.268;2024-01-15T12:56:49;10.45;;;5.50;;
33403;SDS011;19751;40.274;18.268;2024-01-15T12:59:15;9.40;;;3.70;;
33403;SDS011;19751;40.274;18.268;2024-01-15T13:01:41;11.95;;;3.53;;
33403;SDS011;19751;40.274;18.268;2024-01-15T13:04:07;9.20;;;4.47;;
33403;SDS011;19751;40.274;18.268;2024-01-15T13:06:34;8.60;;;5.65;;
33403;SDS011;19751;40.274;18.268;2024-01-15T13:09:05;11.88;;;6.30;;
33403;SDS011;19751;40.274;18.268;2024-01-15T13:11:33;15.43;;;11.38;;
33403;SDS011;19751;40.274;18.268;2024-01-15T13:13:59;20.98;;;12.48;;
33403;SDS011;19751;40.274;18.268;2024-01-15T13:16:25;25.70;;;12.55;;
33403;SDS011;19751;40.274;18.268;2024-01-15T13:18:53;13.88;;;7.60;;
33403;SDS011;19751;40.274;18.268;2024-01-15T13:21:19;11.75;;;6.05;;
33403;SDS011;19751;40.274;18.268;2024-01-15T13:23:44;14.18;;;5.88;;
33403;SDS011;19751;40.274;18.268;2024-01-15T13:26:10;12.60;;;5.95;;
33403;SDS011;19751;40.274;18.268;2024-01-15T13:28:35;6.72;;;4.00;;
33403;SDS011;19751;40.274;18.268;2024-01-15T13:31:01;17.05;;;7.55;;
33403;SDS011;19751;40.274;18.268;2024-01-15T13:33:27;17.77;;;6.75;;
33403;SDS011;19751;40.274;18.268;2024-01-15T13:35:53;19.48;;;9.15;;
33403;SDS011;19751;40.274;18.268;2024-01-15T13:38:18;26.30;;;10.82;;
33403;SDS011;19751;40.274;18.268;2024-01-15T13:40:43;24.30;;;10.82;;
33403;SDS011;19751;40.274;18.268;2024-01-15T13:43:12;12.82;;;6.15;;
33403;SDS011;19751;40.274;18.268;2024-01-15T13:45:39;18.13;;;10.18;;
33403;SDS011;19751;40.274;18.268;2024-01-15T13:48:06;20.73;;;10.35;;
33403;SDS011;19751;40.274;18.268;2024-01-15T13:50:33;17.02;;;8.02;;
33403;SDS011;19751;40.274;18.268;2024-01-15T13:53:02;23.33;;;10.70;;
33403;SDS011;19751;40.274;18.268;2024-01-15T13:55:32;13.23;;;4.30;;
33403;SDS011;19751;40.274;18.268;2024-01-15T13:57:57;13.82;;;6.30;;
33403;SDS011;19751;40.274;18.268;2024-01-15T14:00:23;14.77;;;6.68;;
33403;SDS011;19751;40.274;18.268;2024-01-15T14:02:48;18.83;;;12.38;;
33403;SDS011;19751;40.274;18.268;2024-01-15T14:05:14;26.70;;;15.05;;
33403;SDS011;19751;40.274;18.268;2024-01-15T14:07:40;57.90;;;36.00;;
33403;SDS011;19751;40.274;18.268;2024-01-15T14:10:06;64.05;;;40.55;;
33403;SDS011;19751;40.274;18.268;2024-01-15T14:12:33;25.50;;;11.95;;
33403;SDS011;19751;40.274;18.268;2024-01-15T14:14:59;59.08;;;33.03;;
33403;SDS011;19751;40.274;18.268;2024-01-15T14:17:27;34.72;;;17.35;;
33403;SDS011;19751;40.274;18.268;2024-01-15T14:19:52;14.05;;;9.25;;
33403;SDS011;19751;40.274;18.268;2024-01-15T14:22:18;14.35;;;7.60;;
33403;SDS011;19751;40.274;18.268;2024-01-15T14:24:44;13.40;;;8.07;;
33403;SDS011;19751;40.274;18.268;2024-01-15T14:27:09;34.25;;;21.73;;
33403;SDS011;19751;40.274;18.268;2024-01-15T14:29:35;39.75;;;25.30;;
33403;SDS011;19751;40.274;18.268;2024-01-15T14:32:01;21.80;;;12.68;;
33403;SDS011;19751;40.274;18.268;2024-01-15T14:34:27;15.85;;;9.02;;
33403;SDS011;19751;40.274;18.268;2024-01-15T14:36:52;13.95;;;5.72;;
33403;SDS011;19751;40.274;18.268;2024-01-15T14:39:19;11.32;;;7.28;;
33403;SDS011;19751;40.274;18.268;2024-01-15T14:41:45;12.23;;;5.95;;
33403;SDS011;19751;40.274;18.268;2024-01-15T14:44:11;18.67;;;8.95;;